sensor_id;sensor_type;location;lat;lon;timestamp;P1;durP1;ratioP1;P2;durP2;ratioP2
15153;SDS011;7677;41.896;25.004;2023-07-13T00:01:45;6.05;;;4.10;;
15153;SDS011;7677;41.896;25.004;2023-07-13T00:04:15;4.43;;;3.90;;
15153;SDS011;7677;41.896;25.004;2023-07-13T00:06:42;6.63;;;4.05;;
15153;SDS011;7677;41.896;25.004;2023-07-13T00:09:09;4.40;;;3.90;;
15153;SDS011;7677;41.896;25.004;2023-07-13T00:11:37;5.80;;;3.88;;
15153;SDS011;7677;41.896;25.004;2023-07-13T00:14:04;4.80;;;4.13;;
15153;SDS011;7677;41.896;25.004;2023-07-13T00:16:34;4.88;;;3.75;;
15153;SDS011;7677;41.896;25.004;2023-07-13T00:19:01;6.93;;;4.88;;
15153;SDS011;7677;41.896;25.004;2023-07-13T00:21:29;5.43;;;4.05;;
15153;SDS011;7677;41.896;25.004;2023-07-13T00:23:56;8.40;;;4.60;;
15153;SDS011;7677;41.896;25.004;2023-07-13T00:26:23;5.55;;;4.05;;
15153;SDS011;7677;41.896;25.004;2023-07-13T00:28:50;5.53;;;3.95;;
15153;SDS011;7677;41.896;25.004;2023-07-13T00:31:17;6.80;;;3.90;;
15153;SDS011;7677;41.896;25.004;2023-07-13T00:33:46;5.28;;;4.38;;
15153;SDS011;7677;41.896;25.004;2023-07-13T00:36:13;4.25;;;3.85;;
15153;SDS011;7677;41.896;25.004;2023-07-13T00:38:40;4.65;;;4.22;;
15153;SDS011;7677;41.896;25.004;2023-07-13T00:41:07;4.80;;;4.20;;
15153;SDS011;7677;41.896;25.004;2023-07-13T00:43:34;4.72;;;3.78;;
15153;SDS011;7677;41.896;25.004;2023-07-13T00:49:01;5.28;;;4.30;;
15153;SDS011;7677;41.896;25.004;2023-07-13T00:51:31;6.47;;;5.13;;
15153;SDS011;7677;41.896;25.004;2023-07-13T00:54:02;4.55;;;4.05;;
15153;SDS011;7677;41.896;25.004;2023-07-13T00:56:31;4.25;;;3.67;;
15153;SDS011;7677;41.896;25.004;2023-07-13T00:58:59;4.72;;;4.22;;
15153;SDS011;7677;41.896;25.004;2023-07-13T01:01:27;6.57;;;3.90;;
15153;SDS011;7677;41.896;25.004;2023-07-13T01:03:54;4.10;;;3.70;;
15153;SDS011;7677;41.896;25.004;2023-07-13T01:06:23;5.63;;;4.00;;
15153;SDS011;7677;41.896;25.004;2023-07-13T01:08:50;5.18;;;4.53;;
15153;SDS011;7677;41.896;25.004;2023-07-13T01:11:18;4.88;;;4.38;;
15153;SDS011;7677;41.896;25.004;2023-07-13T01:13:45;4.47;;;4.00;;
15153;SDS011;7677;41.896;25.004;2023-07-13T01:16:13;5.15;;;3.83;;
15153;SDS011;7677;41.896;25.004;2023-07-13T01:18:42;4.88;;;4.00;;
15153;SDS011;7677;41.896;25.004;2023-07-13T01:21:10;5.95;;;4.25;;
15153;SDS011;7677;41.896;25.004;2023-07-13T01:23:37;4.63;;;4.00;;
15153;SDS011;7677;41.896;25.004;2023-07-13T01:26:04;4.43;;;3.88;;
15153;SDS011;7677;41.896;25.004;2023-07-13T01:28:31;5.38;;;4.13;;
15153;SDS011;7677;41.896;25.004;2023-07-13T01:31:02;6.45;;;4.78;;
15153;SDS011;7677;41.896;25.004;2023-07-13T01:33:29;4.82;;;4.38;;
15153;SDS011;7677;41.896;25.004;2023-07-13T01:35:56;8.00;;;4.45;;
15153;SDS011;7677;41.896;25.004;2023-07-13T01:38:25;5.18;;;3.88;;
15153;SDS011;7677;41.896;25.004;2023-07-13T01:40:52;4.47;;;4.05;;
15153;SDS011;7677;41.896;25.004;2023-07-13T01:43:20;7.63;;;4.60;;
15153;SDS011;7677;41.896;25.004;2023-07-13T01:45:47;4.68;;;4.15;;
15153;SDS011;7677;41.896;25.004;2023-07-13T01:48:14;8.20;;;4.35;;
15153;SDS011;7677;41.896;25.004;2023-07-13T01:50:41;5.85;;;4.40;;
15153;SDS011;7677;41.896;25.004;2023-07-13T01:53:08;5.10;;;4.32;;
15153;SDS011;7677;41.896;25.004;2023-07-13T01:55:37;4.30;;;3.90;;
15153;SDS011;7677;41.896;25.004;2023-07-13T01:58:04;5.70;;;3.67;;
15153;SDS011;7677;41.896;25.004;2023-07-13T02:00:31;6.00;;;3.92;;
15153;SDS011;7677;41.896;25.004;2023-07-13T02:02:59;6.63;;;4.05;;
15153;SDS011;7677;41.896;25.004;2023-07-13T02:05:26;4.68;;;3.70;;
15153;SDS011;7677;41.896;25.004;2023-07-13T02:07:53;5.20;;;3.75;;
15153;SDS011;7677;41.896;25.004;2023-07-13T02:10:20;4.10;;;3.63;;
15153;SDS011;7677;41.896;25.004;2023-07-13T02:12:49;5.55;;;3.50;;
15153;SDS011;7677;41.896;25.004;2023-07-13T02:15:17;3.67;;;3.38;;
15153;SDS011;7677;41.896;25.004;2023-07-13T02:17:44;5.07;;;3.92;;
15153;SDS011;7677;41.896;25.004;2023-07-13T02:20:11;5.97;;;4.00;;
15153;SDS011;7677;41.896;25.004;2023-07-13T02:22:38;6.40;;;4.20;;
15153;SDS011;7677;41.896;25.004;2023-07-13T02:25:05;5.03;;;3.97;;
15153;SDS011;7677;41.896;25.004;2023-07-13T02:27:33;4.95;;;4.30;;
15153;SDS011;7677;41.896;25.004;2023-07-13T02:30:01;6.22;;;4.57;;
15153;SDS011;7677;41.896;25.004;2023-07-13T02:32:28;5.10;;;4.30;;
15153;SDS011;7677;41.896;25.004;2023-07-13T02:34:55;6.40;;;4.88;;
15153;SDS011;7677;41.896;25.004;2023-07-13T02:37:22;5.13;;;4.40;;
15153;SDS011;7677;41.896;25.004;2023-07-13T02:39:49;4.97;;;3.90;;
15153;SDS011;7677;41.896;25.004;2023-07-13T02:42:16;4.53;;;3.72;;
15153;SDS011;7677;41.896;25.004;2023-07-13T02:44:43;6.38;;;4.72;;
15153;SDS011;7677;41.896;25.004;2023-07-13T02:47:12;4.80;;;4.32;;
15153;SDS011;7677;41.896;25.004;2023-07-13T02:49:39;5.05;;;4.30;;
15153;SDS011;7677;41.896;25.004;2023-07-13T02:52:06;5.55;;;4.95;;
15153;SDS011;7677;41.896;25.004;2023-07-13T02:54:33;4.68;;;3.88;;
15153;SDS011;7677;41.896;25.004;2023-07-13T02:57:00;5.88;;;3.88;;
15153;SDS011;7677;41.896;25.004;2023-07-13T02:59:27;5.10;;;3.88;;
15153;SDS011;7677;41.896;25.004;2023-07-13T03:01:54;4.53;;;3.60;;
15153;SDS011;7677;41.896;25.004;2023-07-13T03:04:23;4.55;;;3.30;;
15153;SDS011;7677;41.896;25.004;2023-07-13T03:06:50;5.50;;;3.20;;
15153;SDS011;7677;41.896;25.004;2023-07-13T03:09:17;5.03;;;3.63;;
15153;SDS011;7677;41.896;25.004;2023-07-13T03:11:44;4.95;;;3.83;;
15153;SDS011;7677;41.896;25.004;2023-07-13T03:14:11;3.95;;;3.60;;
15153;SDS011;7677;41.896;25.004;2023-07-13T03:16:38;4.68;;;3.95;;
15153;SDS011;7677;41.896;25.004;2023-07-13T03:19:05;5.80;;;3.60;;
15153;SDS011;7677;41.896;25.004;2023-07-13T03:21:33;4.03;;;3.38;;
15153;SDS011;7677;41.896;25.004;2023-07-13T03:24:00;6.25;;;3.80;;
15153;SDS011;7677;41.896;25.004;2023-07-13T03:26:27;4.85;;;3.90;;
15153;SDS011;7677;41.896;25.004;2023-07-13T03:28:54;4.93;;;4.07;;
15153;SDS011;7677;41.896;25.004;2023-07-13T03:31:22;4.07;;;3.47;;
15153;SDS011;7677;41.896;25.004;2023-07-13T03:33:51;4.55;;;3.40;;
15153;SDS011;7677;41.896;25.004;2023-07-13T03:36:19;3.60;;;3.30;;
15153;SDS011;7677;41.896;25.004;2023-07-13T03:38:48;3.70;;;3.40;;
15153;SDS011;7677;41.896;25.004;2023-07-13T03:41:15;5.35;;;4.43;;
15153;SDS011;7677;41.896;25.004;2023-07-13T03:43:42;3.88;;;3.50;;
15153;SDS011;7677;41.896;25.004;2023-07-13T03:46:09;5.43;;;4.18;;
15153;SDS011;7677;41.896;25.004;2023-07-13T03:48:36;4.78;;;3.60;;
15153;SDS011;7677;41.896;25.004;2023-07-13T03:51:05;4.50;;;3.80;;
15153;SDS011;7677;41.896;25.004;2023-07-13T03:53:32;4.03;;;3.63;;
15153;SDS011;7677;41.896;25.004;2023-07-13T03:56:00;5.35;;;4.45;;
15153;SDS011;7677;41.896;25.004;2023-07-13T03:58:31;4.95;;;3.95;;
15153;SDS011;7677;41.896;25.004;2023-07-13T04:00:59;4.35;;;3.72;;
15153;SDS011;7677;41.896;25.004;2023-07-13T04:03:27;4.93;;;4.35;;
15153;SDS011;7677;41.896;25.004;2023-07-13T04:05:55;4.78;;;4.28;;
15153;SDS011;7677;41.896;25.004;2023-07-13T04:08:25;4.15;;;3.75;;
15153;SDS011;7677;41.896;25.004;2023-07-13T04:10:53;4.20;;;3.78;;
15153;SDS011;7677;41.896;25.004;2023-07-13T04:13:22;4.80;;;4.05;;
15153;SDS011;7677;41.896;25.004;2023-07-13T04:15:49;6.90;;;3.75;;
15153;SDS011;7677;41.896;25.004;2023-07-13T04:18:17;5.38;;;4.28;;
15153;SDS011;7677;41.896;25.004;2023-07-13T04:20:44;4.07;;;3.72;;
15153;SDS011;7677;41.896;25.004;2023-07-13T04:23:12;4.68;;;3.78;;
15153;SDS011;7677;41.896;25.004;2023-07-13T04:25:39;4.57;;;3.78;;
15153;SDS011;7677;41.896;25.004;2023-07-13T04:28:06;4.25;;;3.17;;
15153;SDS011;7677;41.896;25.004;2023-07-13T04:30:34;4.15;;;3.75;;
15153;SDS011;7677;41.896;25.004;2023-07-13T04:33:01;4.28;;;3.40;;
15153;SDS011;7677;41.896;25.004;2023-07-13T04:35:29;3.67;;;3.13;;
15153;SDS011;7677;41.896;25.004;2023-07-13T04:37:56;3.58;;;3.28;;
15153;SDS011;7677;41.896;25.004;2023-07-13T04:40:24;4.60;;;3.75;;
15153;SDS011;7677;41.896;25.004;2023-07-13T04:42:51;3.80;;;3.22;;
15153;SDS011;7677;41.896;25.004;2023-07-13T04:45:18;5.95;;;4.13;;
15153;SDS011;7677;41.896;25.004;2023-07-13T04:47:46;4.38;;;3.65;;
15153;SDS011;7677;41.896;25.004;2023-07-13T04:50:13;4.28;;;3.38;;
15153;SDS011;7677;41.896;25.004;2023-07-13T04:52:46;4.53;;;4.03;;
15153;SDS011;7677;41.896;25.004;2023-07-13T04:55:14;4.78;;;4.25;;
15153;SDS011;7677;41.896;25.004;2023-07-13T04:57:41;6.90;;;4.10;;
15153;SDS011;7677;41.896;25.004;2023-07-13T05:00:09;8.32;;;4.18;;
15153;SDS011;7677;41.896;25.004;2023-07-13T05:02:37;4.50;;;3.80;;
15153;SDS011;7677;41.896;25.004;2023-07-13T05:05:06;5.72;;;3.97;;
15153;SDS011;7677;41.896;25.004;2023-07-13T05:07:33;5.22;;;3.80;;
15153;SDS011;7677;41.896;25.004;2023-07-13T05:10:01;5.05;;;3.80;;
15153;SDS011;7677;41.896;25.004;2023-07-13T05:12:29;5.07;;;4.03;;
15153;SDS011;7677;41.896;25.004;2023-07-13T05:14:56;5.72;;;4.63;;
15153;SDS011;7677;41.896;25.004;2023-07-13T05:17:23;4.13;;;3.70;;
15153;SDS011;7677;41.896;25.004;2023-07-13T05:19:50;5.03;;;4.10;;
15153;SDS011;7677;41.896;25.004;2023-07-13T05:22:19;4.80;;;4.00;;
15153;SDS011;7677;41.896;25.004;2023-07-13T05:24:46;5.40;;;4.40;;
15153;SDS011;7677;41.896;25.004;2023-07-13T05:27:13;6.30;;;4.05;;
15153;SDS011;7677;41.896;25.004;2023-07-13T05:29:40;4.68;;;3.90;;
15153;SDS011;7677;41.896;25.004;2023-07-13T05:32:07;4.55;;;4.10;;
15153;SDS011;7677;41.896;25.004;2023-07-13T05:34:34;5.53;;;4.68;;
15153;SDS011;7677;41.896;25.004;2023-07-13T05:37:01;15.95;;;10.85;;
15153;SDS011;7677;41.896;25.004;2023-07-13T05:39:29;19.38;;;11.52;;
15153;SDS011;7677;41.896;25.004;2023-07-13T05:41:56;13.57;;;8.70;;
15153;SDS011;7677;41.896;25.004;2023-07-13T05:44:23;10.95;;;7.55;;
15153;SDS011;7677;41.896;25.004;2023-07-13T05:46:50;14.82;;;8.65;;
15153;SDS011;7677;41.896;25.004;2023-07-13T05:49:17;12.05;;;8.55;;
15153;SDS011;7677;41.896;25.004;2023-07-13T05:51:44;10.77;;;8.35;;
15153;SDS011;7677;41.896;25.004;2023-07-13T05:54:11;13.07;;;9.20;;
15153;SDS011;7677;41.896;25.004;2023-07-13T05:56:40;16.20;;;9.18;;
15153;SDS011;7677;41.896;25.004;2023-07-13T05:59:07;12.07;;;8.57;;
15153;SDS011;7677;41.896;25.004;2023-07-13T06:01:34;9.73;;;7.65;;
15153;SDS011;7677;41.896;25.004;2023-07-13T06:04:01;7.70;;;6.35;;
15153;SDS011;7677;41.896;25.004;2023-07-13T06:06:28;9.13;;;6.63;;
15153;SDS011;7677;41.896;25.004;2023-07-13T06:08:55;6.93;;;5.55;;
15153;SDS011;7677;41.896;25.004;2023-07-13T06:11:24;8.40;;;6.40;;
15153;SDS011;7677;41.896;25.004;2023-07-13T06:13:54;9.68;;;5.65;;
15153;SDS011;7677;41.896;25.004;2023-07-13T06:16:21;6.72;;;6.05;;
15153;SDS011;7677;41.896;25.004;2023-07-13T06:18:48;8.27;;;6.35;;
15153;SDS011;7677;41.896;25.004;2023-07-13T06:21:16;7.43;;;5.97;;
15153;SDS011;7677;41.896;25.004;2023-07-13T06:23:44;6.53;;;5.82;;
15153;SDS011;7677;41.896;25.004;2023-07-13T06:26:12;7.75;;;6.35;;
15153;SDS011;7677;41.896;25.004;2023-07-13T06:28:40;6.85;;;6.05;;
15153;SDS011;7677;41.896;25.004;2023-07-13T06:31:09;6.90;;;6.15;;
15153;SDS011;7677;41.896;25.004;2023-07-13T06:33:37;8.43;;;5.97;;
15153;SDS011;7677;41.896;25.004;2023-07-13T06:36:05;7.40;;;6.10;;
15153;SDS011;7677;41.896;25.004;2023-07-13T06:38:33;6.43;;;5.70;;
15153;SDS011;7677;41.896;25.004;2023-07-13T06:41:00;7.20;;;6.22;;
15153;SDS011;7677;41.896;25.004;2023-07-13T06:43:27;7.47;;;5.80;;
15153;SDS011;7677;41.896;25.004;2023-07-13T06:45:55;7.43;;;5.72;;
15153;SDS011;7677;41.896;25.004;2023-07-13T06:48:24;5.93;;;5.43;;
15153;SDS011;7677;41.896;25.004;2023-07-13T06:50:51;8.68;;;6.35;;
15153;SDS011;7677;41.896;25.004;2023-07-13T06:53:18;6.85;;;5.65;;
15153;SDS011;7677;41.896;25.004;2023-07-13T06:55:46;6.47;;;5.38;;
15153;SDS011;7677;41.896;25.004;2023-07-13T06:58:14;7.47;;;6.00;;
15153;SDS011;7677;41.896;25.004;2023-07-13T07:00:42;6.65;;;5.63;;
15153;SDS011;7677;41.896;25.004;2023-07-13T07:03:09;6.70;;;6.00;;
15153;SDS011;7677;41.896;25.004;2023-07-13T07:05:37;6.40;;;5.65;;
15153;SDS011;7677;41.896;25.004;2023-07-13T07:08:04;7.32;;;6.03;;
15153;SDS011;7677;41.896;25.004;2023-07-13T07:10:31;6.20;;;5.60;;
15153;SDS011;7677;41.896;25.004;2023-07-13T07:12:58;8.98;;;5.57;;
15153;SDS011;7677;41.896;25.004;2023-07-13T07:15:25;6.40;;;5.50;;
15153;SDS011;7677;41.896;25.004;2023-07-13T07:17:53;8.38;;;6.00;;
15153;SDS011;7677;41.896;25.004;2023-07-13T07:20:20;5.78;;;5.28;;
15153;SDS011;7677;41.896;25.004;2023-07-13T07:22:49;7.90;;;6.28;;
15153;SDS011;7677;41.896;25.004;2023-07-13T07:25:16;7.30;;;5.85;;
15153;SDS011;7677;41.896;25.004;2023-07-13T07:27:43;6.63;;;5.95;;
15153;SDS011;7677;41.896;25.004;2023-07-13T07:30:10;6.47;;;5.70;;
15153;SDS011;7677;41.896;25.004;2023-07-13T07:32:38;9.85;;;6.40;;
15153;SDS011;7677;41.896;25.004;2023-07-13T07:35:05;8.98;;;6.65;;
15153;SDS011;7677;41.896;25.004;2023-07-13T07:37:33;6.28;;;5.68;;
15153;SDS011;7677;41.896;25.004;2023-07-13T07:40:02;6.38;;;5.78;;
15153;SDS011;7677;41.896;25.004;2023-07-13T07:42:29;6.32;;;5.55;;
15153;SDS011;7677;41.896;25.004;2023-07-13T07:44:56;8.32;;;6.40;;
15153;SDS011;7677;41.896;25.004;2023-07-13T07:47:23;9.38;;;6.30;;
15153;SDS011;7677;41.896;25.004;2023-07-13T07:49:51;9.38;;;6.18;;
15153;SDS011;7677;41.896;25.004;2023-07-13T07:52:18;6.63;;;6.00;;
15153;SDS011;7677;41.896;25.004;2023-07-13T07:54:45;8.52;;;6.07;;
15153;SDS011;7677;41.896;25.004;2023-07-13T07:57:13;8.88;;;5.57;;
15153;SDS011;7677;41.896;25.004;2023-07-13T07:59:40;6.78;;;5.47;;
15153;SDS011;7677;41.896;25.004;2023-07-13T08:02:08;6.75;;;6.03;;
15153;SDS011;7677;41.896;25.004;2023-07-13T08:04:35;7.13;;;5.50;;
15153;SDS011;7677;41.896;25.004;2023-07-13T08:07:02;7.60;;;5.38;;
15153;SDS011;7677;41.896;25.004;2023-07-13T08:09:29;7.05;;;5.93;;
15153;SDS011;7677;41.896;25.004;2023-07-13T08:11:56;6.57;;;5.60;;
15153;SDS011;7677;41.896;25.004;2023-07-13T08:14:25;6.18;;;5.57;;
15153;SDS011;7677;41.896;25.004;2023-07-13T08:16:52;7.10;;;6.03;;
15153;SDS011;7677;41.896;25.004;2023-07-13T08:19:19;6.88;;;5.65;;
15153;SDS011;7677;41.896;25.004;2023-07-13T08:21:46;6.80;;;6.07;;
15153;SDS011;7677;41.896;25.004;2023-07-13T08:24:14;6.38;;;5.65;;
15153;SDS011;7677;41.896;25.004;2023-07-13T08:26:43;6.80;;;6.10;;
15153;SDS011;7677;41.896;25.004;2023-07-13T08:29:11;9.60;;;5.70;;
15153;SDS011;7677;41.896;25.004;2023-07-13T08:31:39;6.47;;;5.88;;
15153;SDS011;7677;41.896;25.004;2023-07-13T08:34:06;8.10;;;5.78;;
15153;SDS011;7677;41.896;25.004;2023-07-13T08:36:34;5.80;;;5.25;;
15153;SDS011;7677;41.896;25.004;2023-07-13T08:39:01;5.75;;;5.22;;
15153;SDS011;7677;41.896;25.004;2023-07-13T08:41:27;6.45;;;5.70;;
15153;SDS011;7677;41.896;25.004;2023-07-13T08:43:56;6.85;;;5.90;;
15153;SDS011;7677;41.896;25.004;2023-07-13T08:46:26;8.52;;;6.35;;
15153;SDS011;7677;41.896;25.004;2023-07-13T08:48:57;7.30;;;5.70;;
15153;SDS011;7677;41.896;25.004;2023-07-13T08:51:31;7.30;;;6.03;;
15153;SDS011;7677;41.896;25.004;2023-07-13T08:54:02;6.50;;;5.88;;
15153;SDS011;7677;41.896;25.004;2023-07-13T08:56:32;6.38;;;5.55;;
15153;SDS011;7677;41.896;25.004;2023-07-13T08:59:00;8.55;;;5.38;;
15153;SDS011;7677;41.896;25.004;2023-07-13T09:01:33;7.18;;;5.63;;
15153;SDS011;7677;41.896;25.004;2023-07-13T09:04:09;6.78;;;6.07;;
15153;SDS011;7677;41.896;25.004;2023-07-13T09:06:42;6.97;;;5.57;;
15153;SDS011;7677;41.896;25.004;2023-07-13T09:09:19;6.68;;;5.30;;
15153;SDS011;7677;41.896;25.004;2023-07-13T09:11:50;7.07;;;5.32;;
15153;SDS011;7677;41.896;25.004;2023-07-13T09:17:10;6.50;;;5.60;;
15153;SDS011;7677;41.896;25.004;2023-07-13T09:19:41;6.80;;;5.40;;
15153;SDS011;7677;41.896;25.004;2023-07-13T09:22:15;6.38;;;5.72;;
15153;SDS011;7677;41.896;25.004;2023-07-13T09:24:48;8.15;;;5.70;;
15153;SDS011;7677;41.896;25.004;2023-07-13T09:27:19;5.43;;;4.93;;
15153;SDS011;7677;41.896;25.004;2023-07-13T09:29:50;5.80;;;5.28;;
15153;SDS011;7677;41.896;25.004;2023-07-13T09:32:24;4.95;;;4.53;;
15153;SDS011;7677;41.896;25.004;2023-07-13T09:34:53;7.47;;;5.25;;
15153;SDS011;7677;41.896;25.004;2023-07-13T09:37:21;5.10;;;4.60;;
15153;SDS011;7677;41.896;25.004;2023-07-13T09:39:51;5.72;;;4.80;;
15153;SDS011;7677;41.896;25.004;2023-07-13T09:42:20;4.90;;;4.30;;
15153;SDS011;7677;41.896;25.004;2023-07-13T09:44:53;5.55;;;4.28;;
15153;SDS011;7677;41.896;25.004;2023-07-13T09:47:21;4.32;;;3.92;;
15153;SDS011;7677;41.896;25.004;2023-07-13T09:49:55;4.85;;;3.75;;
15153;SDS011;7677;41.896;25.004;2023-07-13T09:52:23;5.55;;;4.07;;
15153;SDS011;7677;41.896;25.004;2023-07-13T09:54:52;6.75;;;4.78;;
15153;SDS011;7677;41.896;25.004;2023-07-13T09:57:24;4.63;;;4.20;;
15153;SDS011;7677;41.896;25.004;2023-07-13T09:59:53;6.25;;;4.65;;
15153;SDS011;7677;41.896;25.004;2023-07-13T10:02:25;4.82;;;4.43;;
15153;SDS011;7677;41.896;25.004;2023-07-13T10:04:57;5.22;;;3.83;;
15153;SDS011;7677;41.896;25.004;2023-07-13T10:07:25;4.60;;;3.88;;
15153;SDS011;7677;41.896;25.004;2023-07-13T10:09:52;4.30;;;3.70;;
15153;SDS011;7677;41.896;25.004;2023-07-13T10:12:20;6.10;;;3.88;;
15153;SDS011;7677;41.896;25.004;2023-07-13T10:14:50;4.18;;;3.67;;
15153;SDS011;7677;41.896;25.004;2023-07-13T10:17:18;6.07;;;3.78;;
15153;SDS011;7677;41.896;25.004;2023-07-13T10:19:46;4.63;;;3.80;;
15153;SDS011;7677;41.896;25.004;2023-07-13T10:22:17;6.05;;;4.55;;
15153;SDS011;7677;41.896;25.004;2023-07-13T10:24:47;4.22;;;3.83;;
15153;SDS011;7677;41.896;25.004;2023-07-13T10:27:17;4.40;;;3.97;;
15153;SDS011;7677;41.896;25.004;2023-07-13T10:29:46;4.88;;;4.20;;
15153;SDS011;7677;41.896;25.004;2023-07-13T10:32:15;4.07;;;3.67;;
15153;SDS011;7677;41.896;25.004;2023-07-13T10:34:43;4.70;;;4.20;;
15153;SDS011;7677;41.896;25.004;2023-07-13T10:37:14;5.65;;;4.00;;
15153;SDS011;7677;41.896;25.004;2023-07-13T10:39:46;3.97;;;3.33;;
15153;SDS011;7677;41.896;25.004;2023-07-13T10:42:14;5.57;;;3.85;;
15153;SDS011;7677;41.896;25.004;2023-07-13T10:44:44;3.95;;;3.47;;
15153;SDS011;7677;41.896;25.004;2023-07-13T10:47:13;4.40;;;3.40;;
15153;SDS011;7677;41.896;25.004;2023-07-13T10:49:41;4.78;;;3.70;;
15153;SDS011;7677;41.896;25.004;2023-07-13T10:58:01;6.13;;;3.53;;
15153;SDS011;7677;41.896;25.004;2023-07-13T11:00:30;5.03;;;3.47;;
15153;SDS011;7677;41.896;25.004;2023-07-13T11:02:59;5.32;;;3.40;;
15153;SDS011;7677;41.896;25.004;2023-07-13T11:05:29;4.25;;;3.53;;
15153;SDS011;7677;41.896;25.004;2023-07-13T11:08:11;3.50;;;3.17;;
15153;SDS011;7677;41.896;25.004;2023-07-13T11:10:48;4.50;;;3.53;;
15153;SDS011;7677;41.896;25.004;2023-07-13T11:13:36;3.85;;;3.38;;
15153;SDS011;7677;41.896;25.004;2023-07-13T11:16:26;4.90;;;3.30;;
15153;SDS011;7677;41.896;25.004;2023-07-13T11:22:09;4.22;;;3.65;;
15153;SDS011;7677;41.896;25.004;2023-07-13T11:27:38;3.85;;;3.45;;
15153;SDS011;7677;41.896;25.004;2023-07-13T11:33:03;4.38;;;3.97;;
15153;SDS011;7677;41.896;25.004;2023-07-13T11:35:38;3.40;;;3.10;;
15153;SDS011;7677;41.896;25.004;2023-07-13T11:38:12;5.28;;;3.40;;
15153;SDS011;7677;41.896;25.004;2023-07-13T11:40:45;4.45;;;3.67;;
15153;SDS011;7677;41.896;25.004;2023-07-13T11:43:13;3.95;;;3.30;;
15153;SDS011;7677;41.896;25.004;2023-07-13T11:45:42;3.90;;;3.50;;
15153;SDS011;7677;41.896;25.004;2023-07-13T11:48:19;4.22;;;3.83;;
15153;SDS011;7677;41.896;25.004;2023-07-13T11:50:55;4.25;;;3.50;;
15153;SDS011;7677;41.896;25.004;2023-07-13T11:53:26;3.85;;;3.50;;
15153;SDS011;7677;41.896;25.004;2023-07-13T11:55:55;4.13;;;3.47;;
15153;SDS011;7677;41.896;25.004;2023-07-13T11:58:24;3.30;;;3.00;;
15153;SDS011;7677;41.896;25.004;2023-07-13T12:00:53;3.67;;;3.35;;
15153;SDS011;7677;41.896;25.004;2023-07-13T12:03:22;3.88;;;3.47;;
15153;SDS011;7677;41.896;25.004;2023-07-13T12:05:57;4.97;;;3.80;;
15153;SDS011;7677;41.896;25.004;2023-07-13T12:08:25;4.28;;;3.90;;
15153;SDS011;7677;41.896;25.004;2023-07-13T12:11:09;3.63;;;3.28;;
15153;SDS011;7677;41.896;25.004;2023-07-13T12:13:41;7.32;;;3.83;;
15153;SDS011;7677;41.896;25.004;2023-07-13T12:16:14;4.85;;;3.45;;
15153;SDS011;7677;41.896;25.004;2023-07-13T12:18:42;6.50;;;4.22;;
15153;SDS011;7677;41.896;25.004;2023-07-13T12:21:12;3.85;;;3.05;;
15153;SDS011;7677;41.896;25.004;2023-07-13T12:23:42;3.78;;;3.08;;
15153;SDS011;7677;41.896;25.004;2023-07-13T12:26:12;5.82;;;3.65;;
15153;SDS011;7677;41.896;25.004;2023-07-13T12:28:43;5.95;;;3.10;;
15153;SDS011;7677;41.896;25.004;2023-07-13T12:31:23;4.47;;;3.40;;
15153;SDS011;7677;41.896;25.004;2023-07-13T12:33:59;7.45;;;3.83;;
15153;SDS011;7677;41.896;25.004;2023-07-13T12:36:29;4.03;;;3.60;;
15153;SDS011;7677;41.896;25.004;2023-07-13T12:38:59;4.38;;;3.33;;
15153;SDS011;7677;41.896;25.004;2023-07-13T12:41:30;6.47;;;3.63;;
15153;SDS011;7677;41.896;25.004;2023-07-13T12:43:59;4.75;;;3.50;;
15153;SDS011;7677;41.896;25.004;2023-07-13T12:46:26;4.97;;;4.03;;
15153;SDS011;7677;41.896;25.004;2023-07-13T12:48:54;5.07;;;3.65;;
15153;SDS011;7677;41.896;25.004;2023-07-13T12:51:24;5.13;;;4.05;;
15153;SDS011;7677;41.896;25.004;2023-07-13T12:53:56;5.85;;;3.70;;
15153;SDS011;7677;41.896;25.004;2023-07-13T12:56:26;5.32;;;3.22;;
15153;SDS011;7677;41.896;25.004;2023-07-13T12:58:58;4.40;;;3.45;;
15153;SDS011;7677;41.896;25.004;2023-07-13T13:01:28;7.57;;;3.83;;
15153;SDS011;7677;41.896;25.004;2023-07-13T13:03:56;3.60;;;3.22;;
15153;SDS011;7677;41.896;25.004;2023-07-13T13:06:24;7.72;;;3.72;;
15153;SDS011;7677;41.896;25.004;2023-07-13T13:08:53;3.45;;;3.15;;
15153;SDS011;7677;41.896;25.004;2023-07-13T13:11:21;4.30;;;3.60;;
15153;SDS011;7677;41.896;25.004;2023-07-13T13:13:49;3.40;;;3.10;;
15153;SDS011;7677;41.896;25.004;2023-07-13T13:16:20;4.20;;;3.50;;
15153;SDS011;7677;41.896;25.004;2023-07-13T13:18:48;7.32;;;3.75;;
15153;SDS011;7677;41.896;25.004;2023-07-13T13:21:16;6.82;;;4.20;;
15153;SDS011;7677;41.896;25.004;2023-07-13T13:23:44;5.88;;;3.70;;
15153;SDS011;7677;41.896;25.004;2023-07-13T13:26:11;4.00;;;3.40;;
15153;SDS011;7677;41.896;25.004;2023-07-13T13:28:40;3.78;;;3.38;;
15153;SDS011;7677;41.896;25.004;2023-07-13T13:31:09;4.25;;;3.67;;
15153;SDS011;7677;41.896;25.004;2023-07-13T13:33:40;4.40;;;4.00;;
15153;SDS011;7677;41.896;25.004;2023-07-13T13:36:19;3.30;;;3.00;;
15153;SDS011;7677;41.896;25.004;2023-07-13T13:38:47;4.18;;;3.78;;
15153;SDS011;7677;41.896;25.004;2023-07-13T13:41:15;4.85;;;4.28;;
15153;SDS011;7677;41.896;25.004;2023-07-13T13:43:42;5.35;;;3.92;;
15153;SDS011;7677;41.896;25.004;2023-07-13T13:46:14;5.10;;;4.55;;
15153;SDS011;7677;41.896;25.004;2023-07-13T13:48:44;5.40;;;3.72;;
15153;SDS011;7677;41.896;25.004;2023-07-13T13:51:13;5.72;;;3.25;;
15153;SDS011;7677;41.896;25.004;2023-07-13T13:53:42;4.78;;;3.60;;
15153;SDS011;7677;41.896;25.004;2023-07-13T13:56:09;6.38;;;3.63;;
15153;SDS011;7677;41.896;25.004;2023-07-13T13:58:36;5.90;;;3.20;;
15153;SDS011;7677;41.896;25.004;2023-07-13T14:01:03;3.78;;;3.30;;
15153;SDS011;7677;41.896;25.004;2023-07-13T14:03:33;3.50;;;3.10;;
15153;SDS011;7677;41.896;25.004;2023-07-13T14:06:02;5.28;;;3.83;;
15153;SDS011;7677;41.896;25.004;2023-07-13T14:08:29;4.45;;;3.60;;
15153;SDS011;7677;41.896;25.004;2023-07-13T14:10:56;4.45;;;3.75;;
15153;SDS011;7677;41.896;25.004;2023-07-13T14:13:25;3.67;;;3.38;;
15153;SDS011;7677;41.896;25.004;2023-07-13T14:15:54;4.20;;;3.80;;
15153;SDS011;7677;41.896;25.004;2023-07-13T14:18:21;3.72;;;3.42;;
15153;SDS011;7677;41.896;25.004;2023-07-13T14:20:49;5.95;;;4.28;;
15153;SDS011;7677;41.896;25.004;2023-07-13T14:23:18;4.85;;;3.80;;
15153;SDS011;7677;41.896;25.004;2023-07-13T14:25:45;4.88;;;3.40;;
15153;SDS011;7677;41.896;25.004;2023-07-13T14:28:19;4.35;;;3.63;;
15153;SDS011;7677;41.896;25.004;2023-07-13T14:30:49;3.70;;;3.13;;
15153;SDS011;7677;41.896;25.004;2023-07-13T14:33:16;5.25;;;3.92;;
15153;SDS011;7677;41.896;25.004;2023-07-13T14:35:44;6.88;;;3.85;;
15153;SDS011;7677;41.896;25.004;2023-07-13T14:38:11;4.25;;;3.47;;
15153;SDS011;7677;41.896;25.004;2023-07-13T14:40:43;4.25;;;3.45;;
15153;SDS011;7677;41.896;25.004;2023-07-13T14:43:10;7.25;;;3.60;;
15153;SDS011;7677;41.896;25.004;2023-07-13T14:45:39;5.13;;;3.10;;
15153;SDS011;7677;41.896;25.004;2023-07-13T14:48:11;7.28;;;3.92;;
15153;SDS011;7677;41.896;25.004;2023-07-13T14:50:40;6.18;;;3.90;;
15153;SDS011;7677;41.896;25.004;2023-07-13T14:53:09;6.70;;;3.75;;
15153;SDS011;7677;41.896;25.004;2023-07-13T14:55:36;3.88;;;3.47;;
15153;SDS011;7677;41.896;25.004;2023-07-13T14:58:05;6.13;;;3.33;;
15153;SDS011;7677;41.896;25.004;2023-07-13T15:00:32;4.55;;;3.30;;
15153;SDS011;7677;41.896;25.004;2023-07-13T15:03:00;4.70;;;3.53;;
15153;SDS011;7677;41.896;25.004;2023-07-13T15:05:28;4.32;;;3.25;;
15153;SDS011;7677;41.896;25.004;2023-07-13T15:07:57;6.03;;;3.70;;
15153;SDS011;7677;41.896;25.004;2023-07-13T15:10:25;4.15;;;3.75;;
15153;SDS011;7677;41.896;25.004;2023-07-13T15:12:57;8.68;;;3.58;;
15153;SDS011;7677;41.896;25.004;2023-07-13T15:15:28;3.70;;;3.38;;
15153;SDS011;7677;41.896;25.004;2023-07-13T15:17:56;4.88;;;3.65;;